sensor_id;sensor_type;location;lat;lon;timestamp;pressure;altitude;pressure_sealevel;temperature;humidity
11971;BME280;6045;42.682;23.294;2023-04-07T00:00:47;94358.97;;;3.21;56.25
11971;BME280;6045;42.682;23.294;2023-04-07T00:03:14;94369.59;;;3.28;56.05
11971;BME280;6045;42.682;23.294;2023-04-07T00:05:43;94366.53;;;3.24;56.48
11971;BME280;6045;42.682;23.294;2023-04-07T00:08:09;94364.06;;;3.23;55.95
11971;BME280;6045;42.682;23.294;2023-04-07T00:10:36;94367.91;;;3.20;56.06
11971;BME280;6045;42.682;23.294;2023-04-07T00:13:03;94363.19;;;3.16;56.93
11971;BME280;6045;42.682;23.294;2023-04-07T00:15:30;94364.97;;;3.09;57.03
11971;BME280;6045;42.682;23.294;2023-04-07T00:17:56;94355.28;;;3.16;56.98
11971;BME280;6045;42.682;23.294;2023-04-07T00:20:23;94365.66;;;3.17;56.24
11971;BME280;6045;42.682;23.294;2023-04-07T00:22:51;94364.22;;;3.15;56.51
11971;BME280;6045;42.682;23.294;2023-04-07T00:25:18;94354.28;;;3.17;56.99
11971;BME280;6045;42.682;23.294;2023-04-07T00:27:45;94362.56;;;3.14;56.60
11971;BME280;6045;42.682;23.294;2023-04-07T00:30:12;94357.91;;;3.16;56.32
11971;BME280;6045;42.682;23.294;2023-04-07T00:32:39;94350.66;;;3.18;56.38
11971;BME280;6045;42.682;23.294;2023-04-07T00:35:07;94348.13;;;3.10;56.94
11971;BME280;6045;42.682;23.294;2023-04-07T00:37:33;94351.84;;;3.15;57.62
11971;BME280;6045;42.682;23.294;2023-04-07T00:40:02;94353.44;;;3.16;57.36
11971;BME280;6045;42.682;23.294;2023-04-07T00:42:29;94353.28;;;3.18;56.63
11971;BME280;6045;42.682;23.294;2023-04-07T00:44:55;94358.16;;;3.21;56.72
11971;BME280;6045;42.682;23.294;2023-04-07T00:47:22;94357.50;;;3.12;56.98
11971;BME280;6045;42.682;23.294;2023-04-07T00:49:49;94358.47;;;3.11;57.00
11971;BME280;6045;42.682;23.294;2023-04-07T00:52:16;94359.31;;;3.12;56.77
11971;BME280;6045;42.682;23.294;2023-04-07T00:54:45;94360.75;;;3.14;56.92
11971;BME280;6045;42.682;23.294;2023-04-07T00:57:13;94353.03;;;3.13;56.24
11971;BME280;6045;42.682;23.294;2023-04-07T00:59:40;94357.69;;;3.11;55.59
11971;BME280;6045;42.682;23.294;2023-04-07T01:02:10;94355.22;;;3.09;56.54
11971;BME280;6045;42.682;23.294;2023-04-07T01:04:43;94354.97;;;3.04;56.69
11971;BME280;6045;42.682;23.294;2023-04-07T01:07:15;94352.78;;;3.08;57.27
11971;BME280;6045;42.682;23.294;2023-04-07T01:09:45;94351.13;;;3.07;57.47
11971;BME280;6045;42.682;23.294;2023-04-07T01:12:22;94341.53;;;2.99;57.27
11971;BME280;6045;42.682;23.294;2023-04-07T01:14:57;94340.75;;;2.99;57.45
11971;BME280;6045;42.682;23.294;2023-04-07T01:17:26;94340.56;;;3.07;57.22
11971;BME280;6045;42.682;23.294;2023-04-07T01:19:57;94347.69;;;3.06;57.13
11971;BME280;6045;42.682;23.294;2023-04-07T01:22:27;94344.03;;;3.07;57.17
11971;BME280;6045;42.682;23.294;2023-04-07T01:25:22;94345.91;;;3.13;57.04
11971;BME280;6045;42.682;23.294;2023-04-07T01:28:08;94347.13;;;3.11;57.01
11971;BME280;6045;42.682;23.294;2023-04-07T01:30:39;94336.56;;;3.11;57.40
11971;BME280;6045;42.682;23.294;2023-04-07T01:33:09;94337.38;;;3.11;57.34
11971;BME280;6045;42.682;23.294;2023-04-07T01:35:36;94338.63;;;3.15;56.62
11971;BME280;6045;42.682;23.294;2023-04-07T01:38:04;94334.97;;;3.16;56.46
11971;BME280;6045;42.682;23.294;2023-04-07T01:40:32;94341.56;;;3.27;56.13
11971;BME280;6045;42.682;23.294;2023-04-07T01:43:01;94337.06;;;3.27;55.92
11971;BME280;6045;42.682;23.294;2023-04-07T01:45:28;94346.44;;;3.30;55.15
11971;BME280;6045;42.682;23.294;2023-04-07T01:47:58;94335.25;;;3.28;55.48
11971;BME280;6045;42.682;23.294;2023-04-07T01:50:25;94337.47;;;3.24;55.50
11971;BME280;6045;42.682;23.294;2023-04-07T01:52:54;94327.16;;;3.29;54.60
11971;BME280;6045;42.682;23.294;2023-04-07T01:55:22;94330.22;;;3.33;54.90
11971;BME280;6045;42.682;23.294;2023-04-07T01:57:49;94331.03;;;3.33;54.92
11971;BME280;6045;42.682;23.294;2023-04-07T02:00:16;94326.34;;;3.29;54.57
11971;BME280;6045;42.682;23.294;2023-04-07T02:02:44;94322.06;;;3.28;54.65
11971;BME280;6045;42.682;23.294;2023-04-07T02:05:17;94319.25;;;3.29;55.24
11971;BME280;6045;42.682;23.294;2023-04-07T02:07:49;94315.19;;;3.33;54.38
11971;BME280;6045;42.682;23.294;2023-04-07T02:10:20;94323.34;;;3.38;54.65
11971;BME280;6045;42.682;23.294;2023-04-07T02:12:48;94322.16;;;3.41;54.01
11971;BME280;6045;42.682;23.294;2023-04-07T02:15:15;94318.47;;;3.35;53.84
11971;BME280;6045;42.682;23.294;2023-04-07T02:17:47;94324.59;;;3.42;53.10
11971;BME280;6045;42.682;23.294;2023-04-07T02:20:17;94327.69;;;3.46;53.19
11971;BME280;6045;42.682;23.294;2023-04-07T02:22:44;94325.22;;;3.44;53.37
11971;BME280;6045;42.682;23.294;2023-04-07T02:25:21;94325.84;;;3.46;53.67
11971;BME280;6045;42.682;23.294;2023-04-07T02:27:48;94318.56;;;3.49;53.49
11971;BME280;6045;42.682;23.294;2023-04-07T02:30:16;94320.63;;;3.53;53.46
11971;BME280;6045;42.682;23.294;2023-04-07T02:32:42;94318.59;;;3.55;52.24
11971;BME280;6045;42.682;23.294;2023-04-07T02:35:10;94331.19;;;3.53;52.92
11971;BME280;6045;42.682;23.294;2023-04-07T02:37:38;94330.53;;;3.51;52.30
11971;BME280;6045;42.682;23.294;2023-04-07T02:40:06;94334.78;;;3.45;51.49
11971;BME280;6045;42.682;23.294;2023-04-07T02:42:33;94329.28;;;3.47;51.81
11971;BME280;6045;42.682;23.294;2023-04-07T02:45:00;94335.19;;;3.49;51.74
11971;BME280;6045;42.682;23.294;2023-04-07T02:47:27;94333.81;;;3.53;52.60
11971;BME280;6045;42.682;23.294;2023-04-07T02:49:54;94337.31;;;3.60;52.09
11971;BME280;6045;42.682;23.294;2023-04-07T02:52:21;94332.41;;;3.57;52.43
11971;BME280;6045;42.682;23.294;2023-04-07T02:54:49;94339.97;;;3.60;52.16
11971;BME280;6045;42.682;23.294;2023-04-07T02:57:16;94330.88;;;3.69;51.88
11971;BME280;6045;42.682;23.294;2023-04-07T02:59:42;94338.59;;;3.71;52.24
11971;BME280;6045;42.682;23.294;2023-04-07T03:02:09;94332.88;;;3.67;51.90
11971;BME280;6045;42.682;23.294;2023-04-07T03:04:36;94339.03;;;3.74;51.60
11971;BME280;6045;42.682;23.294;2023-04-07T03:07:03;94339.06;;;3.81;51.88
11971;BME280;6045;42.682;23.294;2023-04-07T03:09:30;94339.66;;;3.83;52.03
11971;BME280;6045;42.682;23.294;2023-04-07T03:11:58;94338.22;;;3.80;52.41
11971;BME280;6045;42.682;23.294;2023-04-07T03:14:26;94337.66;;;3.91;52.60
11971;BME280;6045;42.682;23.294;2023-04-07T03:16:53;94344.41;;;3.94;51.44
11971;BME280;6045;42.682;23.294;2023-04-07T03:19:20;94346.63;;;3.90;51.40
11971;BME280;6045;42.682;23.294;2023-04-07T03:21:47;94343.38;;;3.88;51.45
11971;BME280;6045;42.682;23.294;2023-04-07T03:24:14;94342.69;;;3.80;51.29
11971;BME280;6045;42.682;23.294;2023-04-07T03:26:40;94335.78;;;3.79;51.74
11971;BME280;6045;42.682;23.294;2023-04-07T03:29:09;94337.44;;;3.86;51.67
11971;BME280;6045;42.682;23.294;2023-04-07T03:31:35;94334.63;;;3.88;51.04
11971;BME280;6045;42.682;23.294;2023-04-07T03:34:02;94335.22;;;3.83;51.44
11971;BME280;6045;42.682;23.294;2023-04-07T03:36:29;94338.00;;;3.75;51.06
11971;BME280;6045;42.682;23.294;2023-04-07T03:38:56;94335.88;;;3.58;51.94
11971;BME280;6045;42.682;23.294;2023-04-07T03:41:24;94332.81;;;3.61;51.69
11971;BME280;6045;42.682;23.294;2023-04-07T03:43:51;94339.13;;;3.60;51.87
11971;BME280;6045;42.682;23.294;2023-04-07T03:46:19;94332.41;;;3.57;51.94
11971;BME280;6045;42.682;23.294;2023-04-07T03:48:46;94337.66;;;3.51;52.53
11971;BME280;6045;42.682;23.294;2023-04-07T03:51:13;94343.38;;;3.54;52.64
11971;BME280;6045;42.682;23.294;2023-04-07T03:53:40;94337.25;;;3.54;52.79
11971;BME280;6045;42.682;23.294;2023-04-07T03:56:07;94339.72;;;3.55;52.31
11971;BME280;6045;42.682;23.294;2023-04-07T03:58:34;94344.59;;;3.58;52.18
11971;BME280;6045;42.682;23.294;2023-04-07T04:01:01;94344.38;;;3.53;52.32
11971;BME280;6045;42.682;23.294;2023-04-07T04:03:29;94341.31;;;3.50;52.73
11971;BME280;6045;42.682;23.294;2023-04-07T04:05:56;94340.31;;;3.51;52.47
11971;BME280;6045;42.682;23.294;2023-04-07T04:08:23;94336.28;;;4.62;79.32
11971;BME280;6045;42.682;23.294;2023-04-07T04:10:50;94341.81;;;5.66;76.70
11971;BME280;6045;42.682;23.294;2023-04-07T04:13:17;94339.53;;;6.02;54.71
11971;BME280;6045;42.682;23.294;2023-04-07T04:15:43;94345.06;;;5.87;50.40
11971;BME280;6045;42.682;23.294;2023-04-07T04:18:10;94345.00;;;6.13;63.70
11971;BME280;6045;42.682;23.294;2023-04-07T04:20:39;94335.91;;;6.78;70.10
11971;BME280;6045;42.682;23.294;2023-04-07T04:23:05;94348.41;;;6.71;50.74
11971;BME280;6045;42.682;23.294;2023-04-07T04:25:32;94343.81;;;6.54;49.39
11971;BME280;6045;42.682;23.294;2023-04-07T04:27:59;94347.03;;;6.18;47.68
11971;BME280;6045;42.682;23.294;2023-04-07T04:30:26;94350.34;;;6.00;49.40
11971;BME280;6045;42.682;23.294;2023-04-07T04:32:52;94352.22;;;5.67;50.00
11971;BME280;6045;42.682;23.294;2023-04-07T04:35:20;94351.44;;;5.27;48.40
11971;BME280;6045;42.682;23.294;2023-04-07T04:37:48;94363.25;;;5.12;52.51
11971;BME280;6045;42.682;23.294;2023-04-07T04:40:15;94354.88;;;5.02;49.48
11971;BME280;6045;42.682;23.294;2023-04-07T04:42:42;94362.41;;;4.85;50.26
11971;BME280;6045;42.682;23.294;2023-04-07T04:45:09;94370.75;;;4.75;52.18
11971;BME280;6045;42.682;23.294;2023-04-07T04:47:38;94373.00;;;5.11;62.21
11971;BME280;6045;42.682;23.294;2023-04-07T04:50:05;94364.88;;;5.19;62.33
11971;BME280;6045;42.682;23.294;2023-04-07T04:52:32;94367.72;;;5.57;69.30
11971;BME280;6045;42.682;23.294;2023-04-07T04:55:01;94364.47;;;5.88;59.48
11971;BME280;6045;42.682;23.294;2023-04-07T04:57:28;94373.69;;;6.36;77.92
11971;BME280;6045;42.682;23.294;2023-04-07T04:59:54;94375.13;;;6.32;59.07
11971;BME280;6045;42.682;23.294;2023-04-07T05:02:21;94381.66;;;6.43;53.54
11971;BME280;6045;42.682;23.294;2023-04-07T05:04:48;94377.53;;;6.47;53.34
11971;BME280;6045;42.682;23.294;2023-04-07T05:07:15;94382.88;;;6.40;55.21
11971;BME280;6045;42.682;23.294;2023-04-07T05:09:42;94375.75;;;6.34;57.32
11971;BME280;6045;42.682;23.294;2023-04-07T05:12:10;94387.91;;;5.84;57.85
11971;BME280;6045;42.682;23.294;2023-04-07T05:14:36;94402.19;;;5.77;58.27
11971;BME280;6045;42.682;23.294;2023-04-07T05:17:03;94399.94;;;5.61;59.05
11971;BME280;6045;42.682;23.294;2023-04-07T05:19:30;94398.25;;;6.18;76.57
11971;BME280;6045;42.682;23.294;2023-04-07T05:21:57;94400.88;;;6.25;62.87
11971;BME280;6045;42.682;23.294;2023-04-07T05:24:25;94395.78;;;6.74;59.92
11971;BME280;6045;42.682;23.294;2023-04-07T05:26:52;94396.00;;;7.11;57.82
11971;BME280;6045;42.682;23.294;2023-04-07T05:29:20;94393.31;;;7.42;55.28
11971;BME280;6045;42.682;23.294;2023-04-07T05:31:47;94401.19;;;7.80;57.53
11971;BME280;6045;42.682;23.294;2023-04-07T05:34:14;94388.19;;;8.14;56.80
11971;BME280;6045;42.682;23.294;2023-04-07T05:36:41;94393.69;;;8.19;55.03
11971;BME280;6045;42.682;23.294;2023-04-07T05:39:08;94395.44;;;7.83;53.35
11971;BME280;6045;42.682;23.294;2023-04-07T05:41:35;94392.63;;;7.78;53.57
11971;BME280;6045;42.682;23.294;2023-04-07T05:44:04;94396.69;;;7.80;53.32
11971;BME280;6045;42.682;23.294;2023-04-07T05:47:00;94391.56;;;7.61;53.42
11971;BME280;6045;42.682;23.294;2023-04-07T05:49:30;94410.97;;;7.61;53.20
11971;BME280;6045;42.682;23.294;2023-04-07T05:51:57;94397.56;;;7.25;49.95
11971;BME280;6045;42.682;23.294;2023-04-07T05:54:23;94400.09;;;7.07;51.79
11971;BME280;6045;42.682;23.294;2023-04-07T05:56:50;94405.09;;;8.45;89.92
11971;BME280;6045;42.682;23.294;2023-04-07T05:59:17;94404.59;;;9.96;93.78
11971;BME280;6045;42.682;23.294;2023-04-07T06:01:44;94392.94;;;11.23;89.90
11971;BME280;6045;42.682;23.294;2023-04-07T06:04:12;94396.97;;;11.54;66.11
11971;BME280;6045;42.682;23.294;2023-04-07T06:06:38;94386.94;;;11.78;50.40
11971;BME280;6045;42.682;23.294;2023-04-07T06:09:05;94391.78;;;11.64;59.15
11971;BME280;6045;42.682;23.294;2023-04-07T06:11:32;94394.06;;;10.24;38.57
11971;BME280;6045;42.682;23.294;2023-04-07T06:13:59;94391.47;;;9.72;39.82
11971;BME280;6045;42.682;23.294;2023-04-07T06:16:25;94396.72;;;9.07;39.49
11971;BME280;6045;42.682;23.294;2023-04-07T06:18:53;94391.69;;;8.51;53.83
11971;BME280;6045;42.682;23.294;2023-04-07T06:21:21;94392.06;;;8.73;42.53
11971;BME280;6045;42.682;23.294;2023-04-07T06:23:48;94395.06;;;8.22;41.63
11971;BME280;6045;42.682;23.294;2023-04-07T06:26:15;94395.63;;;8.06;43.59
11971;BME280;6045;42.682;23.294;2023-04-07T06:28:41;94397.19;;;8.13;45.02
11971;BME280;6045;42.682;23.294;2023-04-07T06:31:08;94386.97;;;7.92;42.71
11971;BME280;6045;42.682;23.294;2023-04-07T06:33:35;94391.00;;;7.77;41.27
11971;BME280;6045;42.682;23.294;2023-04-07T06:36:02;94388.38;;;8.38;42.56
11971;BME280;6045;42.682;23.294;2023-04-07T06:38:30;94385.28;;;9.07;41.05
11971;BME280;6045;42.682;23.294;2023-04-07T06:40:57;94407.16;;;9.38;40.65
11971;BME280;6045;42.682;23.294;2023-04-07T06:43:24;94395.06;;;8.94;40.26
11971;BME280;6045;42.682;23.294;2023-04-07T06:45:50;94396.88;;;8.64;41.70
11971;BME280;6045;42.682;23.294;2023-04-07T06:48:17;94394.44;;;8.45;42.71
11971;BME280;6045;42.682;23.294;2023-04-07T06:50:45;94404.66;;;8.48;41.48
11971;BME280;6045;42.682;23.294;2023-04-07T06:53:12;94401.34;;;8.52;40.83
11971;BME280;6045;42.682;23.294;2023-04-07T06:55:40;94403.78;;;8.36;41.42
11971;BME280;6045;42.682;23.294;2023-04-07T06:58:10;94402.72;;;8.73;40.29
11971;BME280;6045;42.682;23.294;2023-04-07T07:00:37;94405.03;;;8.51;39.60
11971;BME280;6045;42.682;23.294;2023-04-07T07:03:04;94410.63;;;8.43;41.62
11971;BME280;6045;42.682;23.294;2023-04-07T07:05:31;94402.44;;;8.20;41.54
11971;BME280;6045;42.682;23.294;2023-04-07T07:07:58;94410.59;;;8.25;42.18
11971;BME280;6045;42.682;23.294;2023-04-07T07:10:25;94409.81;;;7.75;42.17
11971;BME280;6045;42.682;23.294;2023-04-07T07:12:53;94405.91;;;7.78;41.61
11971;BME280;6045;42.682;23.294;2023-04-07T07:15:20;94417.56;;;7.83;41.55
11971;BME280;6045;42.682;23.294;2023-04-07T07:17:47;94413.88;;;8.27;42.34
11971;BME280;6045;42.682;23.294;2023-04-07T07:20:14;94408.97;;;8.24;40.63
11971;BME280;6045;42.682;23.294;2023-04-07T07:22:40;94412.50;;;7.50;42.33
11971;BME280;6045;42.682;23.294;2023-04-07T07:25:07;94419.00;;;7.54;45.28
11971;BME280;6045;42.682;23.294;2023-04-07T07:27:34;94424.66;;;7.89;43.52
11971;BME280;6045;42.682;23.294;2023-04-07T07:30:04;94423.50;;;8.03;43.05
11971;BME280;6045;42.682;23.294;2023-04-07T07:32:31;94420.66;;;7.55;42.71
11971;BME280;6045;42.682;23.294;2023-04-07T07:34:58;94416.13;;;7.56;44.39
11971;BME280;6045;42.682;23.294;2023-04-07T07:37:24;94430.84;;;7.83;45.85
11971;BME280;6045;42.682;23.294;2023-04-07T07:39:52;94430.13;;;8.19;43.61
11971;BME280;6045;42.682;23.294;2023-04-07T07:42:19;94424.84;;;8.37;46.04
11971;BME280;6045;42.682;23.294;2023-04-07T07:44:45;94428.47;;;8.61;44.43
11971;BME280;6045;42.682;23.294;2023-04-07T07:47:13;94442.31;;;8.51;41.66
11971;BME280;6045;42.682;23.294;2023-04-07T07:49:40;94430.59;;;8.34;43.38
11971;BME280;6045;42.682;23.294;2023-04-07T07:52:07;94442.53;;;8.25;41.56
11971;BME280;6045;42.682;23.294;2023-04-07T07:54:35;94434.75;;;8.30;42.61
11971;BME280;6045;42.682;23.294;2023-04-07T07:57:02;94428.63;;;8.48;42.05
11971;BME280;6045;42.682;23.294;2023-04-07T07:59:29;94431.53;;;8.21;40.41
11971;BME280;6045;42.682;23.294;2023-04-07T08:01:56;94439.16;;;7.69;42.54
11971;BME280;6045;42.682;23.294;2023-04-07T08:04:24;94438.22;;;7.56;43.33
11971;BME280;6045;42.682;23.294;2023-04-07T08:06:52;94434.03;;;7.92;43.05
11971;BME280;6045;42.682;23.294;2023-04-07T08:09:19;94431.53;;;8.21;43.51
11971;BME280;6045;42.682;23.294;2023-04-07T08:11:46;94435.06;;;8.58;42.37
11971;BME280;6045;42.682;23.294;2023-04-07T08:14:13;94432.31;;;8.22;40.47
11971;BME280;6045;42.682;23.294;2023-04-07T08:16:40;94434.69;;;8.12;41.05
11971;BME280;6045;42.682;23.294;2023-04-07T08:19:07;94433.34;;;8.27;41.78
11971;BME280;6045;42.682;23.294;2023-04-07T08:21:36;94435.56;;;8.67;42.37
11971;BME280;6045;42.682;23.294;2023-04-07T08:24:03;94431.28;;;8.84;41.19
11971;BME280;6045;42.682;23.294;2023-04-07T08:26:30;94430.31;;;8.97;41.14
11971;BME280;6045;42.682;23.294;2023-04-07T08:28:57;94432.25;;;8.89;40.39
11971;BME280;6045;42.682;23.294;2023-04-07T08:31:24;94434.22;;;8.94;41.46
11971;BME280;6045;42.682;23.294;2023-04-07T08:33:50;94436.91;;;8.94;42.40
11971;BME280;6045;42.682;23.294;2023-04-07T08:36:18;94437.53;;;9.08;46.03
11971;BME280;6045;42.682;23.294;2023-04-07T08:38:46;94433.78;;;9.27;42.95
11971;BME280;6045;42.682;23.294;2023-04-07T08:41:17;94432.59;;;9.52;42.13
11971;BME280;6045;42.682;23.294;2023-04-07T08:43:46;94434.06;;;9.90;41.21
11971;BME280;6045;42.682;23.294;2023-04-07T08:46:13;94439.66;;;10.00;39.99
11971;BME280;6045;42.682;23.294;2023-04-07T08:48:43;94434.88;;;9.90;39.66
11971;BME280;6045;42.682;23.294;2023-04-07T08:51:12;94434.13;;;10.24;39.58
11971;BME280;6045;42.682;23.294;2023-04-07T08:53:42;94433.53;;;10.34;38.23
11971;BME280;6045;42.682;23.294;2023-04-07T08:56:12;94429.09;;;9.82;36.83
11971;BME280;6045;42.682;23.294;2023-04-07T08:58:39;94436.47;;;9.68;38.72
11971;BME280;6045;42.682;23.294;2023-04-07T09:01:07;94437.25;;;9.98;40.76
11971;BME280;6045;42.682;23.294;2023-04-07T09:03:34;94431.69;;;10.46;40.69
11971;BME280;6045;42.682;23.294;2023-04-07T09:06:01;94432.22;;;11.23;39.96
11971;BME280;6045;42.682;23.294;2023-04-07T09:08:28;94432.50;;;11.66;36.69
11971;BME280;6045;42.682;23.294;2023-04-07T09:10:56;94411.22;;;11.88;36.34
11971;BME280;6045;42.682;23.294;2023-04-07T09:13:24;94421.34;;;11.69;33.96
11971;BME280;6045;42.682;23.294;2023-04-07T09:15:51;94421.69;;;11.44;38.32
11971;BME280;6045;42.682;23.294;2023-04-07T09:18:18;94423.75;;;11.42;37.28
11971;BME280;6045;42.682;23.294;2023-04-07T09:20:55;94426.13;;;11.39;36.26
11971;BME280;6045;42.682;23.294;2023-04-07T09:23:30;94431.88;;;11.47;36.12
11971;BME280;6045;42.682;23.294;2023-04-07T09:25:58;94420.03;;;11.15;36.72
11971;BME280;6045;42.682;23.294;2023-04-07T09:28:40;94433.34;;;10.98;36.58
11971;BME280;6045;42.682;23.294;2023-04-07T09:31:09;94432.59;;;10.75;37.99
11971;BME280;6045;42.682;23.294;2023-04-07T09:33:43;94446.19;;;10.73;41.39
11971;BME280;6045;42.682;23.294;2023-04-07T09:36:28;94446.50;;;10.88;37.74
11971;BME280;6045;42.682;23.294;2023-04-07T09:39:07;94440.06;;;10.61;38.03
11971;BME280;6045;42.682;23.294;2023-04-07T09:41:35;94454.22;;;10.15;37.03
11971;BME280;6045;42.682;23.294;2023-04-07T09:44:03;94444.88;;;9.95;37.84
11971;BME280;6045;42.682;23.294;2023-04-07T09:46:30;94447.09;;;9.98;38.77
11971;BME280;6045;42.682;23.294;2023-04-07T09:49:01;94446.72;;;9.94;41.46
11971;BME280;6045;42.682;23.294;2023-04-07T09:51:29;94460.13;;;10.17;40.21
11971;BME280;6045;42.682;23.294;2023-04-07T09:53:58;94453.88;;;10.58;40.44
11971;BME280;6045;42.682;23.294;2023-04-07T09:56:25;94447.47;;;10.71;37.88
11971;BME280;6045;42.682;23.294;2023-04-07T09:58:52;94454.53;;;10.77;37.58
11971;BME280;6045;42.682;23.294;2023-04-07T10:01:20;94458.59;;;10.91;37.51
11971;BME280;6045;42.682;23.294;2023-04-07T10:03:47;94449.72;;;11.14;36.55
11971;BME280;6045;42.682;23.294;2023-04-07T10:06:15;94442.06;;;11.62;36.37
11971;BME280;6045;42.682;23.294;2023-04-07T10:08:42;94439.13;;;11.63;37.24
11971;BME280;6045;42.682;23.294;2023-04-07T10:11:09;94447.63;;;11.72;36.08
11971;BME280;6045;42.682;23.294;2023-04-07T10:13:38;94443.34;;;11.59;39.00
11971;BME280;6045;42.682;23.294;2023-04-07T10:16:06;94438.53;;;11.45;36.35
11971;BME280;6045;42.682;23.294;2023-04-07T10:18:35;94439.78;;;11.54;38.67
11971;BME280;6045;42.682;23.294;2023-04-07T10:21:03;94436.97;;;11.60;39.43
11971;BME280;6045;42.682;23.294;2023-04-07T10:23:40;94443.66;;;11.46;36.80
11971;BME280;6045;42.682;23.294;2023-04-07T10:26:09;94446.66;;;11.22;37.95
11971;BME280;6045;42.682;23.294;2023-04-07T10:28:39;94449.50;;;11.04;38.59
11971;BME280;6045;42.682;23.294;2023-04-07T10:31:09;94443.78;;;11.00;38.63
11971;BME280;6045;42.682;23.294;2023-04-07T10:33:48;94446.13;;;11.08;39.23
11971;BME280;6045;42.682;23.294;2023-04-07T10:36:16;94439.13;;;11.19;37.93
11971;BME280;6045;42.682;23.294;2023-04-07T10:41:43;94452.66;;;11.29;39.44
11971;BME280;6045;42.682;23.294;2023-04-07T10:44:45;94458.91;;;11.46;41.72
11971;BME280;6045;42.682;23.294;2023-04-07T10:47:14;94455.34;;;11.57;43.26
11971;BME280;6045;42.682;23.294;2023-04-07T10:50:17;94463.28;;;11.52;40.35
11971;BME280;6045;42.682;23.294;2023-04-07T10:52:45;94451.84;;;11.40;40.52
11971;BME280;6045;42.682;23.294;2023-04-07T10:55:32;94454.59;;;11.45;39.26
11971;BME280;6045;42.682;23.294;2023-04-07T10:58:18;94454.47;;;11.80;40.97
11971;BME280;6045;42.682;23.294;2023-04-07T11:01:17;94454.88;;;11.88;39.64
11971;BME280;6045;42.682;23.294;2023-04-07T11:03:58;94454.34;;;12.03;41.46
11971;BME280;6045;42.682;23.294;2023-04-07T11:06:26;94466.16;;;11.90;40.04
11971;BME280;6045;42.682;23.294;2023-04-07T11:08:53;94469.97;;;11.94;41.50
11971;BME280;6045;42.682;23.294;2023-04-07T11:11:36;94458.22;;;12.28;40.11
11971;BME280;6045;42.682;23.294;2023-04-07T11:14:04;94454.91;;;12.21;39.24
11971;BME280;6045;42.682;23.294;2023-04-07T11:16:39;94457.97;;;12.30;41.20
11971;BME280;6045;42.682;23.294;2023-04-07T11:19:06;94449.81;;;12.20;39.78
11971;BME280;6045;42.682;23.294;2023-04-07T11:21:34;94458.53;;;11.99;39.14
11971;BME280;6045;42.682;23.294;2023-04-07T11:24:02;94463.13;;;11.70;40.74
11971;BME280;6045;42.682;23.294;2023-04-07T11:26:29;94459.56;;;11.53;40.47
11971;BME280;6045;42.682;23.294;2023-04-07T11:28:55;94466.03;;;11.68;41.44
11971;BME280;6045;42.682;23.294;2023-04-07T11:31:24;94468.50;;;11.70;41.16
11971;BME280;6045;42.682;23.294;2023-04-07T11:33:52;94466.06;;;11.57;42.40
11971;BME280;6045;42.682;23.294;2023-04-07T11:36:26;94480.97;;;11.53;41.27
11971;BME280;6045;42.682;23.294;2023-04-07T11:38:55;94474.47;;;11.49;42.34
11971;BME280;6045;42.682;23.294;2023-04-07T11:41:24;94473.19;;;11.51;43.07
11971;BME280;6045;42.682;23.294;2023-04-07T11:44:12;94464.44;;;11.56;41.39
11971;BME280;6045;42.682;23.294;2023-04-07T11:46:51;94469.56;;;11.57;40.68
11971;BME280;6045;42.682;23.294;2023-04-07T11:49:19;94475.84;;;11.23;40.94
11971;BME280;6045;42.682;23.294;2023-04-07T11:51:47;94482.31;;;10.99;43.71
11971;BME280;6045;42.682;23.294;2023-04-07T11:54:15;94475.09;;;10.99;42.66
11971;BME280;6045;42.682;23.294;2023-04-07T11:56:43;94482.06;;;11.00;44.08
11971;BME280;6045;42.682;23.294;2023-04-07T11:59:20;94475.84;;;11.23;44.25
11971;BME280;6045;42.682;23.294;2023-04-07T12:01:48;94472.94;;;11.25;43.91
11971;BME280;6045;42.682;23.294;2023-04-07T12:04:16;94475.09;;;11.39;43.01
11971;BME280;6045;42.682;23.294;2023-04-07T12:06:44;94470.09;;;11.71;41.89
11971;BME280;6045;42.682;23.294;2023-04-07T12:09:26;94462.78;;;12.11;42.38
11971;BME280;6045;42.682;23.294;2023-04-07T12:11:54;94468.59;;;12.58;41.82
11971;BME280;6045;42.682;23.294;2023-04-07T12:14:22;94468.56;;;12.75;40.08
11971;BME280;6045;42.682;23.294;2023-04-07T12:16:48;94462.69;;;13.11;41.26
11971;BME280;6045;42.682;23.294;2023-04-07T12:19:15;94463.59;;;13.43;41.41
11971;BME280;6045;42.682;23.294;2023-04-07T12:21:42;94469.72;;;13.39;39.45
11971;BME280;6045;42.682;23.294;2023-04-07T12:24:09;94463.16;;;13.51;40.33
11971;BME280;6045;42.682;23.294;2023-04-07T12:26:37;94458.84;;;13.50;38.43
11971;BME280;6045;42.682;23.294;2023-04-07T12:29:04;94469.34;;;13.09;38.45
11971;BME280;6045;42.682;23.294;2023-04-07T12:31:31;94469.28;;;13.25;42.84
11971;BME280;6045;42.682;23.294;2023-04-07T12:33:58;94463.06;;;13.03;40.44
11971;BME280;6045;42.682;23.294;2023-04-07T12:36:26;94465.28;;;13.06;39.39
11971;BME280;6045;42.682;23.294;2023-04-07T12:38:55;94461.06;;;12.93;40.41
11971;BME280;6045;42.682;23.294;2023-04-07T12:41:22;94469.50;;;13.02;40.89
11971;BME280;6045;42.682;23.294;2023-04-07T12:43:51;94464.25;;;13.07;38.47
11971;BME280;6045;42.682;23.294;2023-04-07T12:46:18;94459.91;;;12.68;38.73
11971;BME280;6045;42.682;23.294;2023-04-07T12:48:45;94463.88;;;12.65;38.72
11971;BME280;6045;42.682;23.294;2023-04-07T12:51:13;94458.63;;;12.92;40.25
11971;BME280;6045;42.682;23.294;2023-04-07T12:53:40;94461.56;;;13.07;39.68
11971;BME280;6045;42.682;23.294;2023-04-07T12:56:07;94455.75;;;13.15;39.86
11971;BME280;6045;42.682;23.294;2023-04-07T12:58:34;94465.88;;;13.30;39.77
11971;BME280;6045;42.682;23.294;2023-04-07T13:01:02;94462.06;;;13.26;39.54
11971;BME280;6045;42.682;23.294;2023-04-07T13:03:29;94459.88;;;13.44;39.54
11971;BME280;6045;42.682;23.294;2023-04-07T13:05:55;94470.28;;;13.89;39.06
11971;BME280;6045;42.682;23.294;2023-04-07T13:08:25;94463.56;;;14.18;37.54
11971;BME280;6045;42.682;23.294;2023-04-07T13:10:53;94475.34;;;14.12;38.35
11971;BME280;6045;42.682;23.294;2023-04-07T13:13:20;94466.25;;;14.18;37.90
11971;BME280;6045;42.682;23.294;2023-04-07T13:15:46;94477.53;;;13.89;37.93
11971;BME280;6045;42.682;23.294;2023-04-07T13:18:15;94474.53;;;13.58;38.70